Terminal Aerodrome Forecast
Issued by NWS

Home | Current Version | Previous Version | Text Only | Print | Product List | Glossary On
Versions: 1 2 3 4 5 6 7 8 9 10 11 12 13 14 15 16 17 18 19 20 21 22
000
FTUS41 KBTV 251135
TAFRUT
TAF
KRUT 251135Z 2512/2612 VRB03KT P6SM FEW200
     FM251700 23007KT P6SM BKN050
     FM252300 22004KT P6SM -SHRA BKN045
     FM260100 24006KT P6SM OVC030
     FM260600 27009KT P6SM BKN035
      AMD LTD TO CLD VIS AND WIND=

USA.gov is the U.S. government's official web portal to all federal, state and local government web resources and services.